ADDS METAR Data INFO
IDs: Format: Raw Decoded Include TAF

Data at: 2302 UTC 21 Feb 2018

KBEC 212255Z AUTO 04012G15KT 10SM OVC033 M04/M07 A3041 RMK AO2 T10361075
KBEC 212235Z AUTO 03014G17KT 10SM BKN035 OVC100 M04/M07 A3042 RMK AO2 T10361075
KBEC 212215Z AUTO 03014G20KT 10SM OVC100 M03/M07 A3041 RMK AO2 T10341075
KBEC 212155Z AUTO 03014KT 7SM OVC100 M03/M08 A3040 RMK AO2 T10351078
KBEC 212135Z AUTO 03014G19KT 10SM BKN110 M03/M08 A3040 RMK AO2 T10351081
KBEC 212115Z AUTO 03014G21KT 10SM BKN110 M04/M08 A3040 RMK AO2 T10361082
KBEC 212055Z AUTO 03014KT 10SM OVC095 M04/M08 A3042 RMK AO2 T10371082
KBEC 212035Z AUTO 02014KT 10SM OVC095 M04/M08 A3042 RMK AO2 T10391080
KBEC 212015Z AUTO 02012KT 10SM OVC095 M04/M08 A3042 RMK AO2 T10391081
KBEC 211955Z AUTO 02015G18KT 10SM OVC095 M04/M08 A3043 RMK AO2 T10371081
KBEC 211935Z AUTO 03013KT 10SM OVC095 M04/M08 A3044 RMK AO2 LTG DSNT S T10381083
KBEC 211915Z AUTO 03012G19KT 10SM OVC095 M04/M09 A3046 RMK AO2 T10411086
KBEC 211835Z AUTO 01014G19KT 10SM OVC095 M05/M08 A3046 RMK AO2 T10461085
KBEC 211815Z AUTO 02015KT 10SM OVC095 M05/M09 A3046 RMK AO2 T10501086
KBEC 211755Z AUTO 02016G19KT 10SM OVC095 M06/M09 A3048 RMK AO2 T10581095 11058 21100
KBEC 211735Z AUTO 02013G19KT 10SM OVC095 M06/M10 A3049 RMK AO2 T10631099
KBEC 211715Z AUTO 02014G17KT 10SM OVC095 M07/M10 A3051 RMK AO2 T10681102
KBEC 211655Z AUTO 02013KT 10SM BKN095 OVC120 M07/M10 A3051 RMK AO2 T10701104
KBEC 211635Z AUTO 01012G19KT 10SM SCT095 OVC120 M07/M10 A3050 RMK AO2 T10731105
KBEC 211615Z AUTO 02015KT 10SM OVC120 M08/M11 A3050 RMK AO2 T10791114
KBEC 211555Z AUTO 02015G18KT 10SM BKN120 M08/M11 A3049 RMK AO2 T10831114
KBEC 211535Z AUTO 10SM CLR M09/M12 A3047 RMK AO2 T10881119
KBEC 211515Z AUTO 10SM SCT095 M09/M12 A3049 RMK AO2 T10901122
KBEC 211455Z AUTO 10SM OVC095 M09/M12 A3049 RMK AO2 T10911122
KBEC 211435Z AUTO 10SM OVC095 M09/M12 A3050 RMK AO2 T10951125
KBEC 211415Z AUTO 10SM OVC095 M09/M12 A3050 RMK AO2 T10951124
KBEC 211355Z AUTO 36012G16KT 10SM BKN095 M10/M13 A3050 RMK AO2 T10971126
KBEC 211335Z AUTO 01013G16KT 10SM CLR M10/M13 A3050 RMK AO2 T11001130
KBEC 211315Z AUTO 36013G19KT 10SM CLR M10/M13 A3048 RMK AO2 T11001130
KBEC 211255Z AUTO 36011KT 10SM CLR M10/M13 A3048 RMK AO2 T11001130
KBEC 210755Z AUTO 36011G15KT 10SM CLR M08/M11 A3042 RMK AO2 T10821113
KBEC 210735Z AUTO 35011G19KT 10SM CLR M08/M11 A3043 RMK AO2 T10801113
KBEC 210715Z AUTO 36010G16KT 10SM CLR M08/M11 A3041 RMK AO2 T10771110
KBEC 210655Z AUTO 36011KT 10SM SCT120 M08/M11 A3040 RMK AO2 T10761109
KBEC 210635Z AUTO 36011KT 10SM SCT120 M07/M11 A3038 RMK AO2 T10751106
KBEC 210615Z AUTO 01011KT 10SM SCT120 M07/M10 A3037 RMK AO2 T10751105
KBEC 210555Z AUTO 01013KT 10SM SCT120 M07/M10 A3035 RMK AO2 T10721105 11051 21072 410171072
KBEC 201515Z AUTO 34013G26KT 5SM BR OVC009 M06/M08 A2999 RMK AO2 LTG DSNT SE T10611077
KBEC 201455Z AUTO 34015G21KT 4SM BR OVC009 M06/M08 A3000 RMK AO2 60001 T10611077
KBEC 201435Z AUTO 33011G20KT 10SM OVC009 M06/M07 A2999 RMK AO2 LTG DSNT SE T10581075
KBEC 201415Z AUTO 35016G28KT 10SM -FZRA OVC009 M06/M08 A2996 RMK AO2 LTG DSNT SE AND S T10581077
KBEC 201355Z AUTO 34016G22KT 10SM -RA SCT011 OVC020 M05/M07 A2995 RMK AO2 LTG DSNT NE AND E T10521071
KBEC 201335Z AUTO 34010G21KT 10SM SCT011 OVC020 M05/M07 A2994 RMK AO2 LTG DSNT NE AND SE T10511070
KBEC 201315Z AUTO 34015G24KT 7SM BKN009 BKN013 OVC018 M05/M06 A2993 RMK AO2 LTG DSNT SE AND S T10471065
KBEC 201255Z AUTO 34016G23KT 2 1/2SM -SN BKN008 OVC012 M04/M05 A2990 RMK AO2 LTG DSNT NE THRU S P0001 T10381050
KBEC 201235Z AUTO 32009KT 290V350 3SM -SN BKN008 BKN021 OVC085 M04/M05 A2992 RMK AO2 LTG DSNT N THRU S P0001 T10371047
KBEC 201215Z AUTO 36011G19KT 2SM -VCTSSN OVC008 M04/M05 A2989 RMK AO2 LTG DSNT ALQS P0001 T10421052
KBEC 201155Z AUTO 35018G24KT 1 1/4SM -TSSN OVC006 M04/M05 A2988 RMK AO2 LTG DSNT ALQS P0004 60004 70004 T10431053 11017 21045
KBEC 201135Z AUTO 34014G23KT 2 1/2SM -TSFZRA OVC004 M04/M05 A2990 RMK AO2 LTG DSNT ALQS T10451054
KBEC 201115Z AUTO 36018G22KT 2 1/2SM -TSSN OVC004 M04/M05 A2985 RMK AO2 LTG DSNT ALQS T10381047